sensor_id;sensor_type;location;lat;lon;timestamp;P1;durP1;ratioP1;P2;durP2;ratioP2
29412;SDS011;16389;50.126;8.450;2023-09-18T00:01:49;6.78;;;4.15;;
29412;SDS011;16389;50.126;8.450;2023-09-18T00:04:15;4.15;;;3.78;;
29412;SDS011;16389;50.126;8.450;2023-09-18T00:06:40;5.05;;;4.00;;
29412;SDS011;16389;50.126;8.450;2023-09-18T00:09:06;9.00;;;4.05;;
29412;SDS011;16389;50.126;8.450;2023-09-18T00:14:03;5.90;;;3.67;;
29412;SDS011;16389;50.126;8.450;2023-09-18T00:16:28;5.32;;;3.40;;
29412;SDS011;16389;50.126;8.450;2023-09-18T00:18:54;5.15;;;3.90;;
29412;SDS011;16389;50.126;8.450;2023-09-18T00:21:20;8.32;;;3.75;;
29412;SDS011;16389;50.126;8.450;2023-09-18T00:23:46;5.40;;;4.22;;
29412;SDS011;16389;50.126;8.450;2023-09-18T00:26:11;5.22;;;3.63;;
29412;SDS011;16389;50.126;8.450;2023-09-18T00:28:37;4.65;;;3.38;;
29412;SDS011;16389;50.126;8.450;2023-09-18T00:31:02;4.53;;;3.83;;
29412;SDS011;16389;50.126;8.450;2023-09-18T00:33:28;6.40;;;3.70;;
29412;SDS011;16389;50.126;8.450;2023-09-18T00:35:54;6.60;;;3.78;;
29412;SDS011;16389;50.126;8.450;2023-09-18T00:38:20;4.47;;;4.07;;
29412;SDS011;16389;50.126;8.450;2023-09-18T00:40:45;6.20;;;3.92;;
29412;SDS011;16389;50.126;8.450;2023-09-18T00:43:11;4.53;;;3.92;;
29412;SDS011;16389;50.126;8.450;2023-09-18T00:45:42;5.95;;;3.85;;
29412;SDS011;16389;50.126;8.450;2023-09-18T00:48:09;3.90;;;3.50;;
29412;SDS011;16389;50.126;8.450;2023-09-18T00:50:37;4.57;;;3.83;;
29412;SDS011;16389;50.126;8.450;2023-09-18T00:53:03;9.52;;;5.28;;
29412;SDS011;16389;50.126;8.450;2023-09-18T00:55:32;5.57;;;3.85;;
29412;SDS011;16389;50.126;8.450;2023-09-18T00:57:58;4.20;;;3.90;;
29412;SDS011;16389;50.126;8.450;2023-09-18T01:00:24;4.45;;;3.45;;
29412;SDS011;16389;50.126;8.450;2023-09-18T01:02:50;7.15;;;3.83;;
29412;SDS011;16389;50.126;8.450;2023-09-18T01:05:16;4.18;;;3.78;;
29412;SDS011;16389;50.126;8.450;2023-09-18T01:07:42;12.50;;;5.28;;
29412;SDS011;16389;50.126;8.450;2023-09-18T01:10:08;5.78;;;4.72;;
29412;SDS011;16389;50.126;8.450;2023-09-18T01:12:48;5.32;;;4.05;;
29412;SDS011;16389;50.126;8.450;2023-09-18T01:15:27;8.55;;;3.75;;
29412;SDS011;16389;50.126;8.450;2023-09-18T01:18:00;4.60;;;3.88;;
29412;SDS011;16389;50.126;8.450;2023-09-18T01:20:27;4.70;;;4.20;;
29412;SDS011;16389;50.126;8.450;2023-09-18T01:22:54;4.85;;;3.83;;
29412;SDS011;16389;50.126;8.450;2023-09-18T01:25:19;5.85;;;3.22;;
29412;SDS011;16389;50.126;8.450;2023-09-18T01:27:45;5.22;;;3.78;;
29412;SDS011;16389;50.126;8.450;2023-09-18T01:30:11;5.45;;;4.07;;
29412;SDS011;16389;50.126;8.450;2023-09-18T01:32:38;5.40;;;3.83;;
29412;SDS011;16389;50.126;8.450;2023-09-18T01:35:04;4.57;;;4.03;;
29412;SDS011;16389;50.126;8.450;2023-09-18T01:37:33;5.78;;;3.42;;
29412;SDS011;16389;50.126;8.450;2023-09-18T01:40:00;6.07;;;3.65;;
29412;SDS011;16389;50.126;8.450;2023-09-18T01:42:26;6.03;;;3.55;;
29412;SDS011;16389;50.126;8.450;2023-09-18T01:44:52;5.78;;;3.50;;
29412;SDS011;16389;50.126;8.450;2023-09-18T01:47:19;4.03;;;3.63;;
29412;SDS011;16389;50.126;8.450;2023-09-18T01:49:48;3.97;;;3.60;;
29412;SDS011;16389;50.126;8.450;2023-09-18T01:52:14;4.15;;;3.67;;
29412;SDS011;16389;50.126;8.450;2023-09-18T01:54:40;5.05;;;3.90;;
29412;SDS011;16389;50.126;8.450;2023-09-18T01:57:05;5.22;;;4.05;;
29412;SDS011;16389;50.126;8.450;2023-09-18T01:59:32;3.95;;;3.45;;
29412;SDS011;16389;50.126;8.450;2023-09-18T02:01:58;4.40;;;3.92;;
29412;SDS011;16389;50.126;8.450;2023-09-18T02:04:25;5.03;;;4.53;;
29412;SDS011;16389;50.126;8.450;2023-09-18T02:06:53;4.22;;;3.80;;
29412;SDS011;16389;50.126;8.450;2023-09-18T02:09:18;4.40;;;4.00;;
29412;SDS011;16389;50.126;8.450;2023-09-18T02:11:45;11.50;;;3.47;;
29412;SDS011;16389;50.126;8.450;2023-09-18T02:14:12;5.60;;;3.55;;
29412;SDS011;16389;50.126;8.450;2023-09-18T02:16:38;5.35;;;3.97;;
29412;SDS011;16389;50.126;8.450;2023-09-18T02:19:12;7.85;;;4.65;;
29412;SDS011;16389;50.126;8.450;2023-09-18T02:21:39;9.68;;;4.50;;
29412;SDS011;16389;50.126;8.450;2023-09-18T02:24:05;5.57;;;5.05;;
29412;SDS011;16389;50.126;8.450;2023-09-18T02:26:31;6.00;;;4.60;;
29412;SDS011;16389;50.126;8.450;2023-09-18T02:29:01;5.97;;;4.63;;
29412;SDS011;16389;50.126;8.450;2023-09-18T02:31:29;5.53;;;5.03;;
29412;SDS011;16389;50.126;8.450;2023-09-18T02:33:54;6.47;;;5.40;;
29412;SDS011;16389;50.126;8.450;2023-09-18T02:36:20;5.78;;;5.28;;
29412;SDS011;16389;50.126;8.450;2023-09-18T02:38:46;7.28;;;5.47;;
29412;SDS011;16389;50.126;8.450;2023-09-18T02:41:11;6.15;;;5.35;;
29412;SDS011;16389;50.126;8.450;2023-09-18T02:43:37;8.40;;;5.53;;
29412;SDS011;16389;50.126;8.450;2023-09-18T02:46:03;5.93;;;5.43;;
29412;SDS011;16389;50.126;8.450;2023-09-18T02:48:30;7.22;;;5.68;;
29412;SDS011;16389;50.126;8.450;2023-09-18T02:50:56;7.97;;;5.70;;
29412;SDS011;16389;50.126;8.450;2023-09-18T02:53:23;6.32;;;5.68;;
29412;SDS011;16389;50.126;8.450;2023-09-18T02:55:53;5.38;;;4.85;;
29412;SDS011;16389;50.126;8.450;2023-09-18T02:58:20;5.97;;;5.47;;
29412;SDS011;16389;50.126;8.450;2023-09-18T03:00:46;7.13;;;5.55;;
29412;SDS011;16389;50.126;8.450;2023-09-18T03:03:13;5.75;;;5.18;;
29412;SDS011;16389;50.126;8.450;2023-09-18T03:05:40;5.90;;;5.35;;
29412;SDS011;16389;50.126;8.450;2023-09-18T03:08:06;6.75;;;6.10;;
29412;SDS011;16389;50.126;8.450;2023-09-18T03:10:33;6.07;;;5.47;;
29412;SDS011;16389;50.126;8.450;2023-09-18T03:13:00;7.50;;;5.35;;
29412;SDS011;16389;50.126;8.450;2023-09-18T03:15:27;6.13;;;5.47;;
29412;SDS011;16389;50.126;8.450;2023-09-18T03:17:53;5.93;;;5.43;;
29412;SDS011;16389;50.126;8.450;2023-09-18T03:20:21;9.85;;;6.05;;
29412;SDS011;16389;50.126;8.450;2023-09-18T03:22:47;6.63;;;6.03;;
29412;SDS011;16389;50.126;8.450;2023-09-18T03:25:13;6.53;;;5.80;;
29412;SDS011;16389;50.126;8.450;2023-09-18T03:27:39;10.25;;;5.97;;
29412;SDS011;16389;50.126;8.450;2023-09-18T03:30:05;6.68;;;6.05;;
29412;SDS011;16389;50.126;8.450;2023-09-18T03:32:31;8.68;;;5.78;;
29412;SDS011;16389;50.126;8.450;2023-09-18T03:34:57;9.10;;;6.93;;
29412;SDS011;16389;50.126;8.450;2023-09-18T03:37:23;7.57;;;6.20;;
29412;SDS011;16389;50.126;8.450;2023-09-18T03:39:48;7.72;;;6.28;;
29412;SDS011;16389;50.126;8.450;2023-09-18T03:42:14;8.43;;;6.10;;
29412;SDS011;16389;50.126;8.450;2023-09-18T03:44:39;6.68;;;6.10;;
29412;SDS011;16389;50.126;8.450;2023-09-18T03:47:05;9.43;;;7.03;;
29412;SDS011;16389;50.126;8.450;2023-09-18T03:49:31;7.70;;;6.93;;
29412;SDS011;16389;50.126;8.450;2023-09-18T03:51:56;6.60;;;6.10;;
29412;SDS011;16389;50.126;8.450;2023-09-18T03:54:22;7.28;;;6.57;;
29412;SDS011;16389;50.126;8.450;2023-09-18T03:56:47;7.03;;;6.35;;
29412;SDS011;16389;50.126;8.450;2023-09-18T03:59:13;7.35;;;6.65;;
29412;SDS011;16389;50.126;8.450;2023-09-18T04:01:39;7.28;;;6.63;;
29412;SDS011;16389;50.126;8.450;2023-09-18T04:04:05;8.48;;;6.65;;
29412;SDS011;16389;50.126;8.450;2023-09-18T04:06:40;6.90;;;6.30;;
29412;SDS011;16389;50.126;8.450;2023-09-18T04:09:06;6.80;;;6.10;;
29412;SDS011;16389;50.126;8.450;2023-09-18T04:11:32;8.20;;;6.38;;
29412;SDS011;16389;50.126;8.450;2023-09-18T04:13:58;6.70;;;6.10;;
29412;SDS011;16389;50.126;8.450;2023-09-18T04:16:25;9.05;;;6.15;;
29412;SDS011;16389;50.126;8.450;2023-09-18T04:18:52;6.20;;;5.70;;
29412;SDS011;16389;50.126;8.450;2023-09-18T04:21:19;6.72;;;5.82;;
29412;SDS011;16389;50.126;8.450;2023-09-18T04:23:46;6.72;;;6.13;;
29412;SDS011;16389;50.126;8.450;2023-09-18T04:26:12;7.50;;;5.82;;
29412;SDS011;16389;50.126;8.450;2023-09-18T04:28:40;6.80;;;5.93;;
29412;SDS011;16389;50.126;8.450;2023-09-18T04:31:06;14.00;;;6.20;;
29412;SDS011;16389;50.126;8.450;2023-09-18T04:33:32;6.72;;;5.72;;
29412;SDS011;16389;50.126;8.450;2023-09-18T04:35:57;6.30;;;5.70;;
29412;SDS011;16389;50.126;8.450;2023-09-18T04:38:23;8.25;;;5.85;;
29412;SDS011;16389;50.126;8.450;2023-09-18T04:40:48;6.32;;;5.35;;
29412;SDS011;16389;50.126;8.450;2023-09-18T04:43:14;8.00;;;5.70;;
29412;SDS011;16389;50.126;8.450;2023-09-18T04:45:40;5.88;;;5.28;;
29412;SDS011;16389;50.126;8.450;2023-09-18T04:48:07;8.05;;;5.82;;
29412;SDS011;16389;50.126;8.450;2023-09-18T04:50:33;9.57;;;5.18;;
29412;SDS011;16389;50.126;8.450;2023-09-18T04:52:59;7.57;;;5.90;;
29412;SDS011;16389;50.126;8.450;2023-09-18T04:55:24;6.40;;;5.70;;
29412;SDS011;16389;50.126;8.450;2023-09-18T04:57:50;7.90;;;6.28;;
29412;SDS011;16389;50.126;8.450;2023-09-18T05:00:15;5.90;;;5.40;;
29412;SDS011;16389;50.126;8.450;2023-09-18T05:02:42;8.65;;;5.95;;
29412;SDS011;16389;50.126;8.450;2023-09-18T05:05:07;7.30;;;6.35;;
29412;SDS011;16389;50.126;8.450;2023-09-18T05:07:36;10.07;;;5.68;;
29412;SDS011;16389;50.126;8.450;2023-09-18T05:10:02;7.80;;;5.07;;
29412;SDS011;16389;50.126;8.450;2023-09-18T05:12:29;5.63;;;5.05;;
29412;SDS011;16389;50.126;8.450;2023-09-18T05:14:55;5.90;;;5.35;;
29412;SDS011;16389;50.126;8.450;2023-09-18T05:17:27;5.88;;;5.00;;
29412;SDS011;16389;50.126;8.450;2023-09-18T05:20:08;5.88;;;5.28;;
29412;SDS011;16389;50.126;8.450;2023-09-18T05:22:37;5.88;;;4.75;;
29412;SDS011;16389;50.126;8.450;2023-09-18T05:25:02;7.32;;;5.00;;
29412;SDS011;16389;50.126;8.450;2023-09-18T05:27:29;6.10;;;5.13;;
29412;SDS011;16389;50.126;8.450;2023-09-18T05:29:55;6.47;;;5.65;;
29412;SDS011;16389;50.126;8.450;2023-09-18T05:32:20;7.78;;;6.32;;
29412;SDS011;16389;50.126;8.450;2023-09-18T05:34:46;6.85;;;4.88;;
29412;SDS011;16389;50.126;8.450;2023-09-18T05:37:11;5.93;;;5.30;;
29412;SDS011;16389;50.126;8.450;2023-09-18T05:39:38;8.07;;;5.53;;
29412;SDS011;16389;50.126;8.450;2023-09-18T05:42:03;9.43;;;5.47;;
29412;SDS011;16389;50.126;8.450;2023-09-18T05:44:29;6.82;;;4.38;;
29412;SDS011;16389;50.126;8.450;2023-09-18T05:46:55;7.53;;;4.55;;
29412;SDS011;16389;50.126;8.450;2023-09-18T05:49:21;7.53;;;4.07;;
29412;SDS011;16389;50.126;8.450;2023-09-18T05:51:47;4.93;;;4.15;;
29412;SDS011;16389;50.126;8.450;2023-09-18T05:54:13;9.85;;;4.40;;
29412;SDS011;16389;50.126;8.450;2023-09-18T05:56:39;6.30;;;3.72;;
29412;SDS011;16389;50.126;8.450;2023-09-18T05:59:05;4.85;;;3.17;;
29412;SDS011;16389;50.126;8.450;2023-09-18T06:01:30;4.65;;;3.75;;
29412;SDS011;16389;50.126;8.450;2023-09-18T06:03:57;8.65;;;4.53;;
29412;SDS011;16389;50.126;8.450;2023-09-18T06:06:28;8.60;;;4.10;;
29412;SDS011;16389;50.126;8.450;2023-09-18T06:08:54;6.43;;;4.05;;
29412;SDS011;16389;50.126;8.450;2023-09-18T06:11:19;5.82;;;3.60;;
29412;SDS011;16389;50.126;8.450;2023-09-18T06:13:45;6.05;;;3.85;;
29412;SDS011;16389;50.126;8.450;2023-09-18T06:16:11;5.25;;;3.28;;
29412;SDS011;16389;50.126;8.450;2023-09-18T06:18:36;7.30;;;3.40;;
29412;SDS011;16389;50.126;8.450;2023-09-18T06:21:03;6.20;;;3.45;;
29412;SDS011;16389;50.126;8.450;2023-09-18T06:23:30;5.82;;;3.38;;
29412;SDS011;16389;50.126;8.450;2023-09-18T06:25:56;6.28;;;3.45;;
29412;SDS011;16389;50.126;8.450;2023-09-18T06:28:24;8.25;;;4.22;;
29412;SDS011;16389;50.126;8.450;2023-09-18T06:30:49;5.78;;;3.70;;
29412;SDS011;16389;50.126;8.450;2023-09-18T06:33:15;5.05;;;3.47;;
29412;SDS011;16389;50.126;8.450;2023-09-18T06:35:41;6.40;;;4.00;;
29412;SDS011;16389;50.126;8.450;2023-09-18T06:38:07;8.65;;;4.05;;
29412;SDS011;16389;50.126;8.450;2023-09-18T06:40:35;5.00;;;3.83;;
29412;SDS011;16389;50.126;8.450;2023-09-18T06:43:01;5.97;;;3.42;;
29412;SDS011;16389;50.126;8.450;2023-09-18T06:45:27;6.28;;;4.25;;
29412;SDS011;16389;50.126;8.450;2023-09-18T06:47:53;5.57;;;3.65;;
29412;SDS011;16389;50.126;8.450;2023-09-18T06:50:19;5.75;;;4.28;;
29412;SDS011;16389;50.126;8.450;2023-09-18T06:52:45;6.75;;;3.08;;
29412;SDS011;16389;50.126;8.450;2023-09-18T06:55:11;10.00;;;3.88;;
29412;SDS011;16389;50.126;8.450;2023-09-18T06:57:37;7.25;;;3.80;;
29412;SDS011;16389;50.126;8.450;2023-09-18T07:00:03;11.73;;;3.42;;
29412;SDS011;16389;50.126;8.450;2023-09-18T07:02:30;6.32;;;3.50;;
29412;SDS011;16389;50.126;8.450;2023-09-18T07:04:56;3.67;;;3.13;;
29412;SDS011;16389;50.126;8.450;2023-09-18T07:07:21;5.53;;;3.83;;
29412;SDS011;16389;50.126;8.450;2023-09-18T07:09:50;9.93;;;4.15;;
29412;SDS011;16389;50.126;8.450;2023-09-18T07:12:16;9.82;;;3.83;;
29412;SDS011;16389;50.126;8.450;2023-09-18T07:14:45;8.82;;;3.70;;
29412;SDS011;16389;50.126;8.450;2023-09-18T07:17:11;8.85;;;3.95;;
29412;SDS011;16389;50.126;8.450;2023-09-18T07:19:37;8.82;;;3.67;;
29412;SDS011;16389;50.126;8.450;2023-09-18T07:22:03;6.53;;;3.40;;
29412;SDS011;16389;50.126;8.450;2023-09-18T07:24:29;5.03;;;3.13;;
29412;SDS011;16389;50.126;8.450;2023-09-18T07:26:54;8.55;;;3.50;;
29412;SDS011;16389;50.126;8.450;2023-09-18T07:29:22;9.55;;;3.97;;
29412;SDS011;16389;50.126;8.450;2023-09-18T07:31:50;5.22;;;3.17;;
29412;SDS011;16389;50.126;8.450;2023-09-18T07:34:16;7.15;;;3.25;;
29412;SDS011;16389;50.126;8.450;2023-09-18T07:36:42;6.25;;;2.90;;
29412;SDS011;16389;50.126;8.450;2023-09-18T07:39:09;6.45;;;2.90;;
29412;SDS011;16389;50.126;8.450;2023-09-18T07:41:36;6.20;;;2.70;;
29412;SDS011;16389;50.126;8.450;2023-09-18T07:44:03;8.15;;;3.38;;
29412;SDS011;16389;50.126;8.450;2023-09-18T07:46:28;7.63;;;3.38;;
29412;SDS011;16389;50.126;8.450;2023-09-18T07:48:54;7.93;;;2.45;;
29412;SDS011;16389;50.126;8.450;2023-09-18T07:51:20;8.02;;;2.28;;
29412;SDS011;16389;50.126;8.450;2023-09-18T07:53:45;6.00;;;3.08;;
29412;SDS011;16389;50.126;8.450;2023-09-18T07:56:11;7.10;;;3.47;;
29412;SDS011;16389;50.126;8.450;2023-09-18T07:58:37;6.28;;;2.78;;
29412;SDS011;16389;50.126;8.450;2023-09-18T08:01:03;8.10;;;3.00;;
29412;SDS011;16389;50.126;8.450;2023-09-18T08:03:35;11.20;;;2.90;;
29412;SDS011;16389;50.126;8.450;2023-09-18T08:06:00;3.75;;;2.17;;
29412;SDS011;16389;50.126;8.450;2023-09-18T08:08:26;4.70;;;2.20;;
29412;SDS011;16389;50.126;8.450;2023-09-18T08:10:52;6.00;;;2.03;;
29412;SDS011;16389;50.126;8.450;2023-09-18T08:13:18;7.50;;;2.80;;
29412;SDS011;16389;50.126;8.450;2023-09-18T08:15:48;6.10;;;2.22;;
29412;SDS011;16389;50.126;8.450;2023-09-18T08:18:13;8.32;;;2.15;;
29412;SDS011;16389;50.126;8.450;2023-09-18T08:20:42;4.45;;;1.83;;
29412;SDS011;16389;50.126;8.450;2023-09-18T08:23:11;8.52;;;2.25;;
29412;SDS011;16389;50.126;8.450;2023-09-18T08:25:37;8.98;;;2.13;;
29412;SDS011;16389;50.126;8.450;2023-09-18T08:28:05;7.15;;;2.25;;
29412;SDS011;16389;50.126;8.450;2023-09-18T08:30:31;12.13;;;3.60;;
29412;SDS011;16389;50.126;8.450;2023-09-18T08:32:57;5.03;;;2.08;;
29412;SDS011;16389;50.126;8.450;2023-09-18T08:35:22;4.00;;;1.88;;
29412;SDS011;16389;50.126;8.450;2023-09-18T08:37:50;9.98;;;2.17;;
29412;SDS011;16389;50.126;8.450;2023-09-18T08:40:15;6.45;;;2.60;;
29412;SDS011;16389;50.126;8.450;2023-09-18T08:42:45;5.05;;;2.67;;
29412;SDS011;16389;50.126;8.450;2023-09-18T08:45:14;6.78;;;2.22;;
29412;SDS011;16389;50.126;8.450;2023-09-18T08:47:50;8.55;;;2.63;;
29412;SDS011;16389;50.126;8.450;2023-09-18T08:50:17;8.43;;;1.92;;
29412;SDS011;16389;50.126;8.450;2023-09-18T08:52:43;6.10;;;2.60;;
29412;SDS011;16389;50.126;8.450;2023-09-18T08:55:11;7.70;;;2.47;;
29412;SDS011;16389;50.126;8.450;2023-09-18T08:57:38;6.03;;;1.90;;
29412;SDS011;16389;50.126;8.450;2023-09-18T09:00:07;7.93;;;2.05;;
29412;SDS011;16389;50.126;8.450;2023-09-18T09:02:34;4.65;;;1.50;;
29412;SDS011;16389;50.126;8.450;2023-09-18T09:05:00;7.28;;;2.00;;
29412;SDS011;16389;50.126;8.450;2023-09-18T09:07:26;7.15;;;1.85;;
29412;SDS011;16389;50.126;8.450;2023-09-18T09:09:53;4.40;;;2.35;;
29412;SDS011;16389;50.126;8.450;2023-09-18T09:15:14;3.53;;;1.08;;
29412;SDS011;16389;50.126;8.450;2023-09-18T09:17:41;3.92;;;1.13;;
29412;SDS011;16389;50.126;8.450;2023-09-18T09:20:08;4.65;;;1.25;;
29412;SDS011;16389;50.126;8.450;2023-09-18T09:22:36;6.57;;;1.55;;
29412;SDS011;16389;50.126;8.450;2023-09-18T09:25:02;1.90;;;0.85;;
29412;SDS011;16389;50.126;8.450;2023-09-18T09:27:28;4.80;;;0.98;;
29412;SDS011;16389;50.126;8.450;2023-09-18T09:29:58;3.13;;;1.30;;
29412;SDS011;16389;50.126;8.450;2023-09-18T09:34:49;2.58;;;0.75;;
29412;SDS011;16389;50.126;8.450;2023-09-18T09:37:17;3.78;;;1.10;;
29412;SDS011;16389;50.126;8.450;2023-09-18T09:39:50;2.28;;;0.88;;
29412;SDS011;16389;50.126;8.450;2023-09-18T09:42:17;3.05;;;0.88;;
29412;SDS011;16389;50.126;8.450;2023-09-18T09:45:00;1.10;;;0.70;;
29412;SDS011;16389;50.126;8.450;2023-09-18T09:47:27;6.88;;;2.33;;
29412;SDS011;16389;50.126;8.450;2023-09-18T09:49:55;2.88;;;1.00;;
29412;SDS011;16389;50.126;8.450;2023-09-18T09:52:21;2.90;;;0.85;;
29412;SDS011;16389;50.126;8.450;2023-09-18T09:54:47;3.40;;;1.00;;
29412;SDS011;16389;50.126;8.450;2023-09-18T09:57:13;1.25;;;0.77;;
29412;SDS011;16389;50.126;8.450;2023-09-18T09:59:39;3.08;;;0.80;;
29412;SDS011;16389;50.126;8.450;2023-09-18T10:04:39;2.28;;;0.70;;
29412;SDS011;16389;50.126;8.450;2023-09-18T10:07:08;1.63;;;1.00;;
29412;SDS011;16389;50.126;8.450;2023-09-18T10:09:35;2.13;;;0.70;;
29412;SDS011;16389;50.126;8.450;2023-09-18T10:12:03;3.88;;;0.85;;
29412;SDS011;16389;50.126;8.450;2023-09-18T10:14:30;1.88;;;0.52;;
29412;SDS011;16389;50.126;8.450;2023-09-18T10:16:57;1.90;;;0.55;;
29412;SDS011;16389;50.126;8.450;2023-09-18T10:19:31;2.30;;;0.70;;
29412;SDS011;16389;50.126;8.450;2023-09-18T10:27:42;0.85;;;0.68;;
29412;SDS011;16389;50.126;8.450;2023-09-18T10:30:10;1.92;;;0.70;;
29412;SDS011;16389;50.126;8.450;2023-09-18T10:32:40;0.95;;;0.63;;
29412;SDS011;16389;50.126;8.450;2023-09-18T10:35:06;2.63;;;1.08;;
29412;SDS011;16389;50.126;8.450;2023-09-18T10:37:37;3.25;;;0.65;;
29412;SDS011;16389;50.126;8.450;2023-09-18T10:40:03;2.03;;;0.60;;
29412;SDS011;16389;50.126;8.450;2023-09-18T10:42:33;1.70;;;0.70;;
29412;SDS011;16389;50.126;8.450;2023-09-18T10:45:00;5.18;;;0.70;;
29412;SDS011;16389;50.126;8.450;2023-09-18T10:47:29;1.30;;;0.70;;
29412;SDS011;16389;50.126;8.450;2023-09-18T10:49:55;1.08;;;0.50;;
29412;SDS011;16389;50.126;8.450;2023-09-18T10:52:21;2.08;;;0.50;;
29412;SDS011;16389;50.126;8.450;2023-09-18T10:54:47;1.60;;;0.60;;
29412;SDS011;16389;50.126;8.450;2023-09-18T10:57:12;1.80;;;1.00;;
29412;SDS011;16389;50.126;8.450;2023-09-18T10:59:48;1.02;;;0.60;;
29412;SDS011;16389;50.126;8.450;2023-09-18T11:02:14;3.45;;;0.70;;
29412;SDS011;16389;50.126;8.450;2023-09-18T11:04:41;2.75;;;0.70;;
29412;SDS011;16389;50.126;8.450;2023-09-18T11:07:07;1.75;;;0.65;;
29412;SDS011;16389;50.126;8.450;2023-09-18T11:09:43;3.00;;;0.70;;
29412;SDS011;16389;50.126;8.450;2023-09-18T11:12:10;2.13;;;0.52;;
29412;SDS011;16389;50.126;8.450;2023-09-18T11:14:46;1.00;;;0.70;;
29412;SDS011;16389;50.126;8.450;2023-09-18T11:17:36;0.77;;;0.60;;
29412;SDS011;16389;50.126;8.450;2023-09-18T11:20:09;2.70;;;0.68;;
29412;SDS011;16389;50.126;8.450;2023-09-18T11:22:47;17.38;;;0.95;;
29412;SDS011;16389;50.126;8.450;2023-09-18T11:25:29;4.90;;;0.75;;
29412;SDS011;16389;50.126;8.450;2023-09-18T11:27:56;2.58;;;0.70;;
29412;SDS011;16389;50.126;8.450;2023-09-18T11:30:22;5.60;;;0.82;;
29412;SDS011;16389;50.126;8.450;2023-09-18T11:32:51;0.77;;;0.52;;
29412;SDS011;16389;50.126;8.450;2023-09-18T11:35:18;2.00;;;0.90;;
29412;SDS011;16389;50.126;8.450;2023-09-18T11:37:44;1.38;;;0.75;;
29412;SDS011;16389;50.126;8.450;2023-09-18T11:40:30;2.58;;;0.70;;
29412;SDS011;16389;50.126;8.450;2023-09-18T11:43:19;2.35;;;0.80;;
29412;SDS011;16389;50.126;8.450;2023-09-18T11:45:50;2.58;;;0.60;;
29412;SDS011;16389;50.126;8.450;2023-09-18T11:48:16;1.98;;;0.80;;
29412;SDS011;16389;50.126;8.450;2023-09-18T11:50:44;1.80;;;0.70;;
29412;SDS011;16389;50.126;8.450;2023-09-18T11:53:11;1.20;;;0.70;;
29412;SDS011;16389;50.126;8.450;2023-09-18T11:55:38;1.73;;;0.60;;
29412;SDS011;16389;50.126;8.450;2023-09-18T11:58:05;2.67;;;0.80;;
29412;SDS011;16389;50.126;8.450;2023-09-18T12:00:31;2.13;;;0.70;;
29412;SDS011;16389;50.126;8.450;2023-09-18T12:02:57;1.30;;;0.73;;
29412;SDS011;16389;50.126;8.450;2023-09-18T12:05:23;1.23;;;0.70;;
29412;SDS011;16389;50.126;8.450;2023-09-18T12:07:51;1.75;;;0.80;;
29412;SDS011;16389;50.126;8.450;2023-09-18T12:10:19;1.45;;;0.90;;
29412;SDS011;16389;50.126;8.450;2023-09-18T12:12:47;2.70;;;0.80;;
29412;SDS011;16389;50.126;8.450;2023-09-18T12:15:17;1.85;;;0.73;;
29412;SDS011;16389;50.126;8.450;2023-09-18T12:17:45;0.93;;;0.70;;
29412;SDS011;16389;50.126;8.450;2023-09-18T12:20:17;2.05;;;0.70;;
29412;SDS011;16389;50.126;8.450;2023-09-18T12:22:46;1.65;;;1.40;;
29412;SDS011;16389;50.126;8.450;2023-09-18T12:25:13;1.08;;;0.90;;
29412;SDS011;16389;50.126;8.450;2023-09-18T12:27:42;1.15;;;0.80;;
29412;SDS011;16389;50.126;8.450;2023-09-18T12:30:08;0.95;;;0.77;;
29412;SDS011;16389;50.126;8.450;2023-09-18T12:32:36;1.55;;;0.90;;
29412;SDS011;16389;50.126;8.450;2023-09-18T12:35:02;1.85;;;1.00;;
29412;SDS011;16389;50.126;8.450;2023-09-18T12:37:39;1.00;;;0.60;;
29412;SDS011;16389;50.126;8.450;2023-09-18T12:40:27;1.67;;;0.65;;
29412;SDS011;16389;50.126;8.450;2023-09-18T12:42:55;1.27;;;0.68;;
29412;SDS011;16389;50.126;8.450;2023-09-18T12:45:22;1.80;;;0.98;;
29412;SDS011;16389;50.126;8.450;2023-09-18T12:47:49;2.22;;;0.70;;
29412;SDS011;16389;50.126;8.450;2023-09-18T12:50:15;0.90;;;0.65;;
29412;SDS011;16389;50.126;8.450;2023-09-18T12:52:41;1.95;;;0.50;;
29412;SDS011;16389;50.126;8.450;2023-09-18T12:55:07;1.00;;;0.52;;
29412;SDS011;16389;50.126;8.450;2023-09-18T12:57:33;0.60;;;0.60;;
29412;SDS011;16389;50.126;8.450;2023-09-18T12:59:59;0.57;;;0.50;;
29412;SDS011;16389;50.126;8.450;2023-09-18T13:02:35;1.52;;;0.60;;
29412;SDS011;16389;50.126;8.450;2023-09-18T13:05:01;1.85;;;0.70;;
29412;SDS011;16389;50.126;8.450;2023-09-18T13:07:28;2.15;;;1.10;;
29412;SDS011;16389;50.126;8.450;2023-09-18T13:09:58;0.85;;;0.70;;
29412;SDS011;16389;50.126;8.450;2023-09-18T13:12:41;2.42;;;0.82;;
29412;SDS011;16389;50.126;8.450;2023-09-18T13:15:08;1.50;;;0.60;;
29412;SDS011;16389;50.126;8.450;2023-09-18T13:17:46;2.08;;;0.70;;
29412;SDS011;16389;50.126;8.450;2023-09-18T13:20:15;2.20;;;0.70;;
29412;SDS011;16389;50.126;8.450;2023-09-18T13:22:42;1.60;;;0.70;;
29412;SDS011;16389;50.126;8.450;2023-09-18T13:25:13;0.93;;;0.60;;
29412;SDS011;16389;50.126;8.450;2023-09-18T13:27:54;1.55;;;0.80;;
29412;SDS011;16389;50.126;8.450;2023-09-18T13:30:20;1.33;;;0.60;;
29412;SDS011;16389;50.126;8.450;2023-09-18T13:32:47;1.67;;;0.70;;
29412;SDS011;16389;50.126;8.450;2023-09-18T13:35:14;1.15;;;0.70;;
29412;SDS011;16389;50.126;8.450;2023-09-18T13:37:41;1.25;;;0.70;;
29412;SDS011;16389;50.126;8.450;2023-09-18T13:40:07;1.75;;;0.80;;
29412;SDS011;16389;50.126;8.450;2023-09-18T13:42:37;2.38;;;0.70;;
29412;SDS011;16389;50.126;8.450;2023-09-18T13:47:30;1.13;;;0.52;;
29412;SDS011;16389;50.126;8.450;2023-09-18T13:49:55;3.25;;;0.70;;
29412;SDS011;16389;50.126;8.450;2023-09-18T13:52:28;1.88;;;0.70;;
29412;SDS011;16389;50.126;8.450;2023-09-18T13:54:54;1.38;;;0.70;;
29412;SDS011;16389;50.126;8.450;2023-09-18T13:57:21;0.85;;;0.60;;
29412;SDS011;16389;50.126;8.450;2023-09-18T13:59:47;0.93;;;0.70;;
29412;SDS011;16389;50.126;8.450;2023-09-18T14:02:14;3.35;;;0.90;;
29412;SDS011;16389;50.126;8.450;2023-09-18T14:04:40;3.45;;;0.70;;
29412;SDS011;16389;50.126;8.450;2023-09-18T14:07:07;2.35;;;0.80;;
29412;SDS011;16389;50.126;8.450;2023-09-18T14:09:34;1.98;;;0.80;;
29412;SDS011;16389;50.126;8.450;2023-09-18T14:12:00;1.13;;;0.70;;
29412;SDS011;16389;50.126;8.450;2023-09-18T14:14:27;3.10;;;0.70;;
29412;SDS011;16389;50.126;8.450;2023-09-18T14:16:53;2.60;;;0.60;;
29412;SDS011;16389;50.126;8.450;2023-09-18T14:19:19;1.98;;;0.60;;
29412;SDS011;16389;50.126;8.450;2023-09-18T14:21:46;4.45;;;0.70;;
29412;SDS011;16389;50.126;8.450;2023-09-18T14:24:14;1.33;;;0.60;;
29412;SDS011;16389;50.126;8.450;2023-09-18T14:26:42;1.17;;;0.60;;
29412;SDS011;16389;50.126;8.450;2023-09-18T14:29:08;1.02;;;0.65;;
29412;SDS011;16389;50.126;8.450;2023-09-18T14:31:34;2.20;;;1.02;;
29412;SDS011;16389;50.126;8.450;2023-09-18T14:34:03;2.70;;;0.73;;
29412;SDS011;16389;50.126;8.450;2023-09-18T14:36:33;2.53;;;0.70;;
29412;SDS011;16389;50.126;8.450;2023-09-18T14:39:02;1.02;;;0.70;;
29412;SDS011;16389;50.126;8.450;2023-09-18T14:41:28;0.75;;;0.65;;
29412;SDS011;16389;50.126;8.450;2023-09-18T14:43:55;2.85;;;0.75;;
29412;SDS011;16389;50.126;8.450;2023-09-18T14:46:22;2.22;;;0.90;;
29412;SDS011;16389;50.126;8.450;2023-09-18T14:48:48;2.38;;;0.93;;
29412;SDS011;16389;50.126;8.450;2023-09-18T14:51:14;3.08;;;1.33;;
29412;SDS011;16389;50.126;8.450;2023-09-18T14:53:39;1.45;;;0.75;;
29412;SDS011;16389;50.126;8.450;2023-09-18T14:56:05;1.33;;;0.65;;
29412;SDS011;16389;50.126;8.450;2023-09-18T14:58:31;1.63;;;0.70;;
29412;SDS011;16389;50.126;8.450;2023-09-18T15:00:57;1.77;;;0.95;;
29412;SDS011;16389;50.126;8.450;2023-09-18T15:03:23;1.85;;;0.82;;
29412;SDS011;16389;50.126;8.450;2023-09-18T15:05:52;1.38;;;0.80;;
29412;SDS011;16389;50.126;8.450;2023-09-18T15:08:18;1.58;;;0.98;;